createdAt,value
2017-10-17T00:01:30.960Z,101783.11
2017-10-17T00:03:33.393Z,101779.55
2017-10-17T00:05:35.903Z,101782.26
2017-10-17T00:07:38.352Z,101782.69
2017-10-17T00:09:40.844Z,101780.48
2017-10-17T00:11:43.421Z,101782.34
2017-10-17T00:13:45.911Z,101784.55
2017-10-17T00:15:48.442Z,101780.91
2017-10-17T00:17:50.917Z,101782.77
2017-10-17T00:19:53.389Z,101783.27
2017-10-17T00:21:55.897Z,101785.05
2017-10-17T00:23:58.451Z,101788.26
2017-10-17T00:26:00.897Z,101785.13
2017-10-17T00:28:03.341Z,101774.84
2017-10-17T00:30:05.817Z,101776.63
2017-10-17T00:32:08.283Z,101778.36
2017-10-17T00:34:10.791Z,101775.16
2017-10-17T00:36:31.800Z,101773.91
2017-10-17T00:38:34.880Z,101778.36
2017-10-17T00:40:37.346Z,101777.13
2017-10-17T00:42:39.846Z,101778.98
2017-10-17T00:44:42.397Z,101778.05
2017-10-17T00:46:44.858Z,101779.83
2017-10-17T00:48:47.412Z,101778.48
2017-10-17T00:50:49.880Z,101780.34
2017-10-17T00:52:52.319Z,101784.81
2017-10-17T00:54:54.902Z,101777.13
2017-10-17T00:56:57.349Z,101779.41
2017-10-17T00:58:59.884Z,101779.41
2017-10-17T01:01:02.353Z,101784.39
2017-10-17T01:03:04.824Z,101778.56
2017-10-17T01:05:07.284Z,101783.97
2017-10-17T01:07:09.744Z,101778.98
2017-10-17T01:09:12.188Z,101786.67
2017-10-17T01:11:14.704Z,101789.89
2017-10-17T01:13:19.854Z,101788.03
2017-10-17T01:15:22.313Z,101784.47
2017-10-17T01:17:24.765Z,101791.23
2017-10-17T01:19:27.233Z,101789.46
2017-10-17T01:21:29.695Z,101787.69
2017-10-17T01:26:21.740Z,101791.01
2017-10-17T01:28:24.181Z,101789.23
2017-10-17T01:30:26.620Z,101789.31
2017-10-17T01:32:29.117Z,101789.73
2017-10-17T01:34:32.484Z,101788.81
2017-10-17T01:36:34.934Z,101784.33
2017-10-17T01:38:38.329Z,101784.33
2017-10-17T01:40:40.772Z,101789.31
2017-10-17T01:42:43.265Z,101787.96
2017-10-17T01:44:45.732Z,101788.89
2017-10-17T01:46:49.044Z,101792.02
2017-10-17T01:48:53.041Z,101792.95
2017-10-17T01:50:56.423Z,101791.59
2017-10-17T01:53:24.637Z,101789.31
2017-10-17T01:55:27.145Z,101786.77
2017-10-17T01:57:34.185Z,101789.59
2017-10-17T02:02:11.546Z,101790.52
2017-10-17T02:04:14.033Z,101794.57
2017-10-17T02:06:16.488Z,101800.41
2017-10-17T02:08:18.974Z,101799.56
2017-10-17T02:10:22.186Z,101798.20
2017-10-17T02:12:24.644Z,101807.67
2017-10-17T02:14:27.132Z,101799.56
2017-10-17T02:16:29.587Z,101808.60
2017-10-17T02:18:35.573Z,101802.69
2017-10-17T02:20:38.194Z,101809.95
2017-10-17T02:22:44.141Z,101804.97
2017-10-17T02:24:47.181Z,101801.84
2017-10-17T02:26:49.661Z,101799.64
2017-10-17T02:28:52.917Z,101794.73
2017-10-17T02:31:00.839Z,101796.94
2017-10-17T02:33:03.347Z,101802.42
2017-10-17T02:35:09.502Z,101805.05
2017-10-17T02:37:11.958Z,101805.12
2017-10-17T02:39:14.527Z,101802.84
2017-10-17T02:41:16.988Z,101800.65
2017-10-17T02:43:19.424Z,101798.79
2017-10-17T02:45:21.892Z,101805.55
2017-10-17T02:47:24.489Z,101803.78
2017-10-17T02:49:43.689Z,101806.06
2017-10-17T02:51:46.160Z,101809.69
2017-10-17T02:53:48.734Z,101815.53
2017-10-17T02:55:51.306Z,101813.75
2017-10-17T02:57:53.782Z,101814.28
2017-10-17T02:59:58.026Z,101813.36
2017-10-17T03:02:01.065Z,101813.44
2017-10-17T03:04:03.498Z,101812.94
2017-10-17T03:06:05.965Z,101815.64
2017-10-17T03:08:08.490Z,101813.86
2017-10-17T03:10:11.060Z,101811.58
2017-10-17T03:12:13.521Z,101805.75
2017-10-17T03:14:16.006Z,101814.79
2017-10-17T03:16:18.468Z,101813.02
2017-10-17T03:18:20.937Z,101811.66
2017-10-17T03:20:24.124Z,101808.53
2017-10-17T03:22:26.580Z,101808.53
2017-10-17T03:24:35.618Z,101813.94
2017-10-17T03:26:38.095Z,101814.02
2017-10-17T03:28:47.274Z,101812.16
2017-10-17T03:30:49.739Z,101812.16
2017-10-17T03:33:07.104Z,101824.34
2017-10-17T03:35:10.331Z,101820.86
2017-10-17T03:39:46.525Z,101830.95
2017-10-17T03:41:48.959Z,101831.80
2017-10-17T03:43:54.279Z,101828.17
2017-10-17T03:45:56.731Z,101833.15
2017-10-17T03:48:01.087Z,101834.92
2017-10-17T03:50:04.344Z,101834.08
2017-10-17T03:54:42.341Z,101828.33
2017-10-17T03:56:44.935Z,101819.78
2017-10-17T03:58:47.409Z,101831.45
2017-10-17T04:00:49.896Z,101832.30
2017-10-17T04:03:07.953Z,101830.52
2017-10-17T04:05:33.895Z,101828.83
2017-10-17T04:07:53.624Z,101832.97
2017-10-17T04:10:02.943Z,101827.55
2017-10-17T04:12:05.401Z,101837.02
2017-10-17T04:14:08.658Z,101842.44
2017-10-17T04:18:53.784Z,101841.27
2017-10-17T04:23:34.048Z,101841.27
2017-10-17T04:28:31.913Z,101836.37
2017-10-17T04:30:42.998Z,101848.62
2017-10-17T04:32:47.104Z,101839.66
2017-10-17T04:34:49.545Z,101844.56
2017-10-17T04:36:52.860Z,101842.78
2017-10-17T04:38:55.344Z,101848.62
2017-10-17T04:40:57.785Z,101850.31
2017-10-17T04:43:12.071Z,101849.47
2017-10-17T04:47:47.194Z,101858.08
2017-10-17T04:50:01.441Z,101856.73
2017-10-17T04:52:09.368Z,101852.75
2017-10-17T04:54:33.273Z,101852.36
2017-10-17T04:56:35.786Z,101855.46
2017-10-17T05:01:08.465Z,101861.91
2017-10-17T05:03:15.447Z,101863.19
2017-10-17T05:05:25.741Z,101869.52
2017-10-17T05:07:29.023Z,101869.59
2017-10-17T05:09:32.254Z,101864.92
2017-10-17T05:11:34.759Z,101868.05
2017-10-17T05:16:23.991Z,101874.50
2017-10-17T05:18:29.784Z,101869.52
2017-10-17T05:20:51.674Z,101869.95
2017-10-17T05:25:29.717Z,101869.59
2017-10-17T05:27:54.685Z,101871.80
2017-10-17T05:30:01.967Z,101871.88
2017-10-17T05:32:04.474Z,101871.88
2017-10-17T05:34:10.675Z,101874.59
2017-10-17T05:38:52.290Z,101877.29
2017-10-17T05:40:54.957Z,101877.29
2017-10-17T05:42:57.432Z,101866.05
2017-10-17T05:45:01.792Z,101873.23
2017-10-17T05:47:06.758Z,101874.16
2017-10-17T05:51:39.246Z,101876.44
2017-10-17T05:53:41.709Z,101878.14
2017-10-17T05:55:44.246Z,101878.98
2017-10-17T05:57:46.697Z,101879.91
2017-10-17T05:59:49.320Z,101880.77
2017-10-17T06:01:51.845Z,101885.21
2017-10-17T06:03:54.293Z,101886.17
2017-10-17T06:05:56.862Z,101887.92
2017-10-17T06:07:59.336Z,101887.53
2017-10-17T06:10:01.772Z,101891.47
2017-10-17T06:12:04.228Z,101892.83
2017-10-17T06:14:06.757Z,101891.89
2017-10-17T06:16:09.216Z,101895.88
2017-10-17T06:18:11.686Z,101894.52
2017-10-17T06:20:14.161Z,101892.24
2017-10-17T06:22:16.688Z,101898.16
2017-10-17T06:24:19.137Z,101897.66
2017-10-17T06:26:21.729Z,101901.70
2017-10-17T06:28:24.177Z,101908.05
2017-10-17T06:30:26.619Z,101908.90
2017-10-17T06:32:29.126Z,101902.64
2017-10-17T06:34:31.577Z,101902.64
2017-10-17T06:36:34.040Z,101906.70
2017-10-17T06:38:36.500Z,101910.67
2017-10-17T06:40:38.940Z,101920.45
2017-10-17T06:42:41.368Z,101909.13
2017-10-17T06:44:43.841Z,101909.91
2017-10-17T06:46:46.281Z,101901.70
2017-10-17T06:48:48.761Z,101906.08
2017-10-17T06:50:51.223Z,101900.01
2017-10-17T06:52:53.680Z,101903.03
2017-10-17T06:54:56.144Z,101901.94
2017-10-17T06:56:58.620Z,101907.59
2017-10-17T06:59:01.071Z,101906.50
2017-10-17T07:01:03.670Z,101903.60
2017-10-17T07:03:07.702Z,101905.72
2017-10-17T07:05:12.558Z,101908.23
2017-10-17T07:07:16.442Z,101913.07
2017-10-17T07:09:20.230Z,101909.36
2017-10-17T07:11:23.991Z,101915.50
2017-10-17T07:13:27.993Z,101913.99
2017-10-17T07:15:32.079Z,101914.84
2017-10-17T07:17:36.180Z,101917.36
2017-10-17T07:19:40.178Z,101916.77
2017-10-17T07:21:44.523Z,101920.64
2017-10-17T07:23:48.491Z,101920.59
2017-10-17T07:25:52.629Z,101921.79
2017-10-17T07:27:55.190Z,101925.66
2017-10-17T07:29:59.280Z,101920.09
2017-10-17T07:32:03.173Z,101923.14
2017-10-17T07:34:07.190Z,101923.80
2017-10-17T07:36:11.032Z,101922.25
2017-10-17T07:38:15.170Z,101931.56
2017-10-17T07:40:19.522Z,101923.67
2017-10-17T07:42:23.556Z,101930.79
2017-10-17T07:44:27.540Z,101923.86
2017-10-17T07:46:31.301Z,101920.97
2017-10-17T07:48:35.472Z,101921.73
2017-10-17T07:50:38.896Z,101924.25
2017-10-17T07:52:43.701Z,101921.88
2017-10-17T07:54:47.611Z,101918.17
2017-10-17T07:56:51.948Z,101915.27
2017-10-17T07:58:56.443Z,101911.98
2017-10-17T08:01:00.414Z,101913.67
2017-10-17T08:03:05.211Z,101909.42
2017-10-17T08:05:09.714Z,101908.83
2017-10-17T08:07:13.996Z,101907.40
2017-10-17T08:09:17.945Z,101905.85
2017-10-17T08:11:22.461Z,101904.77
2017-10-17T08:13:26.614Z,101904.56
2017-10-17T08:15:30.658Z,101899.58
2017-10-17T08:17:34.821Z,101900.34
2017-10-17T08:19:38.684Z,101898.45
2017-10-17T08:21:43.623Z,101897.28
2017-10-17T08:23:47.957Z,101893.53
2017-10-17T08:25:52.107Z,101896.58
2017-10-17T08:27:55.669Z,101903.27
2017-10-17T08:29:59.475Z,101907.98
2017-10-17T08:32:03.493Z,101904.27
2017-10-17T08:34:07.370Z,101899.19
2017-10-17T08:36:11.740Z,101896.80
2017-10-17T08:38:15.801Z,101903.83
2017-10-17T08:40:19.835Z,101902.48
2017-10-17T08:42:24.340Z,101904.56
2017-10-17T08:44:27.757Z,101891.02
2017-10-17T08:46:32.312Z,101897.20
2017-10-17T08:48:34.876Z,101891.70
2017-10-17T08:50:37.336Z,101890.27
2017-10-17T08:52:39.781Z,101892.36
2017-10-17T08:54:42.245Z,101893.29
2017-10-17T08:56:44.896Z,101891.77
2017-10-17T08:58:47.370Z,101892.20
2017-10-17T09:00:49.845Z,101888.98
2017-10-17T09:02:52.313Z,101893.44
2017-10-17T09:04:54.820Z,101892.94
2017-10-17T09:06:57.290Z,101888.79
2017-10-17T09:08:59.807Z,101887.94
2017-10-17T09:11:02.255Z,101886.93
2017-10-17T09:13:04.729Z,101891.33
2017-10-17T09:15:07.175Z,101888.51
2017-10-17T09:17:09.618Z,101895.20
2017-10-17T09:19:12.112Z,101900.03
2017-10-17T09:21:14.609Z,101895.46
2017-10-17T09:23:17.053Z,101900.34
2017-10-17T09:25:19.557Z,101894.84
2017-10-17T09:27:22.004Z,101889.93
2017-10-17T09:29:24.497Z,101888.07
2017-10-17T09:31:26.964Z,101890.19
2017-10-17T09:33:29.410Z,101897.39
2017-10-17T09:35:31.908Z,101894.59
2017-10-17T09:37:34.357Z,101895.95
2017-10-17T09:39:36.791Z,101891.34
2017-10-17T09:41:39.324Z,101888.56
2017-10-17T09:43:41.788Z,101888.48
2017-10-17T09:45:44.226Z,101886.19
2017-10-17T09:47:46.680Z,101889.75
2017-10-17T09:49:49.220Z,101881.51
2017-10-17T09:51:51.661Z,101882.47
2017-10-17T09:53:54.109Z,101878.21
2017-10-17T09:55:56.569Z,101880.58
2017-10-17T09:57:59.039Z,101879.98
2017-10-17T10:00:01.492Z,101879.48
2017-10-17T10:02:03.980Z,101876.69
2017-10-17T10:04:06.450Z,101874.83
2017-10-17T10:06:08.933Z,101879.66
2017-10-17T10:08:11.396Z,101871.95
2017-10-17T10:10:13.906Z,101874.08
2017-10-17T10:12:16.353Z,101870.83
2017-10-17T10:14:18.821Z,101869.39
2017-10-17T10:16:21.268Z,101869.73
2017-10-17T10:18:23.720Z,101869.02
2017-10-17T10:20:26.192Z,101869.02
2017-10-17T10:22:28.646Z,101863.02
2017-10-17T10:24:31.088Z,101867.93
2017-10-17T10:26:33.547Z,101862.00
2017-10-17T10:28:36.028Z,101867.31
2017-10-17T10:30:38.490Z,101866.30
2017-10-17T10:32:40.968Z,101867.56
2017-10-17T10:34:43.410Z,101863.00
2017-10-17T10:36:45.917Z,101858.81
2017-10-17T10:38:48.413Z,101855.94
2017-10-17T10:40:50.857Z,101854.59
2017-10-17T10:42:53.337Z,101856.36
2017-10-17T10:44:55.913Z,101856.28
2017-10-17T10:46:58.360Z,101857.21
2017-10-17T10:49:00.807Z,101852.95
2017-10-17T10:51:03.261Z,101853.38
2017-10-17T10:53:05.701Z,101846.09
2017-10-17T10:55:08.249Z,101846.52
2017-10-17T10:57:10.729Z,101844.95
2017-10-17T10:59:13.197Z,101846.23
2017-10-17T11:01:15.660Z,101847.50
2017-10-17T11:03:18.241Z,101842.50
2017-10-17T11:05:20.704Z,101842.42
2017-10-17T11:07:23.374Z,101836.88
2017-10-17T11:09:25.959Z,101832.31
2017-10-17T11:11:28.421Z,101831.80
2017-10-17T11:13:30.862Z,101834.86
2017-10-17T11:15:33.336Z,101830.70
2017-10-17T11:17:35.856Z,101836.94
2017-10-17T11:19:38.347Z,101825.51
2017-10-17T11:21:40.817Z,101825.00
2017-10-17T11:23:43.277Z,101825.42
2017-10-17T11:25:45.737Z,101823.05
2017-10-17T11:27:48.214Z,101820.34
2017-10-17T11:29:50.673Z,101818.36
2017-10-17T11:31:53.146Z,101820.66
2017-10-17T11:33:55.651Z,101819.21
2017-10-17T11:35:58.085Z,101817.43
2017-10-17T11:38:00.551Z,101818.28
2017-10-17T11:40:03.029Z,101807.52
2017-10-17T11:42:17.345Z,101802.44
2017-10-17T11:44:19.813Z,101800.74
2017-10-17T11:46:22.366Z,101796.17
2017-10-17T11:48:24.893Z,101796.09
2017-10-17T11:50:27.393Z,101788.38
2017-10-17T11:52:29.864Z,101796.39
2017-10-17T11:54:32.401Z,101788.69
2017-10-17T11:56:34.848Z,101781.91
2017-10-17T11:58:37.316Z,101783.69
2017-10-17T12:00:39.783Z,101778.69
2017-10-17T12:02:42.224Z,101780.38
2017-10-17T12:04:44.680Z,101775.39
2017-10-17T12:06:47.140Z,101774.77
2017-10-17T12:08:49.776Z,101770.69
2017-10-17T12:10:52.244Z,101768.32
2017-10-17T12:12:54.689Z,101764.68
2017-10-17T12:14:57.141Z,101765.52
2017-10-17T12:16:59.613Z,101758.66
2017-10-17T12:19:02.118Z,101756.89
2017-10-17T12:21:04.616Z,101753.13
2017-10-17T12:23:07.097Z,101756.26
2017-10-17T12:25:09.598Z,101750.75
2017-10-17T12:27:12.048Z,101750.33
2017-10-17T12:29:14.517Z,101754.22
2017-10-17T12:31:17.007Z,101751.94
2017-10-17T12:33:19.577Z,101743.89
2017-10-17T12:35:22.044Z,101748.80
2017-10-17T12:37:24.505Z,101736.91
2017-10-17T12:39:27.298Z,101735.89
2017-10-17T12:41:30.560Z,101736.31
2017-10-17T12:43:33.283Z,101740.80
2017-10-17T12:45:35.777Z,101738.94
2017-10-17T12:47:38.232Z,101730.72
2017-10-17T12:49:40.680Z,101727.47
2017-10-17T12:51:43.129Z,101723.83
2017-10-17T12:53:45.655Z,101726.95
2017-10-17T12:55:48.130Z,101721.45
2017-10-17T12:57:50.570Z,101724.25
2017-10-17T12:59:53.081Z,101718.73
2017-10-17T13:01:55.554Z,101716.03
2017-10-17T13:03:58.102Z,101715.52
2017-10-17T13:06:00.679Z,101711.87
2017-10-17T13:08:03.141Z,101704.59
2017-10-17T13:10:05.680Z,101711.37
2017-10-17T13:12:08.188Z,101703.23
2017-10-17T13:14:10.636Z,101698.54
2017-10-17T13:16:13.077Z,101699.47
2017-10-17T13:18:15.592Z,101689.55
2017-10-17T13:20:18.144Z,101698.45
2017-10-17T13:22:20.641Z,101695.23
2017-10-17T13:24:23.222Z,101690.73
2017-10-17T13:26:25.676Z,101689.80
2017-10-17T13:28:28.145Z,101688.95
2017-10-17T13:30:30.618Z,101687.18
2017-10-17T13:32:33.065Z,101683.53
2017-10-17T13:34:35.518Z,101686.25
2017-10-17T13:36:38.000Z,101680.41
2017-10-17T13:38:40.568Z,101678.63
2017-10-17T13:40:43.092Z,101679.98
2017-10-17T13:42:45.565Z,101677.78
2017-10-17T13:44:48.007Z,101681.42
2017-10-17T13:46:50.454Z,101671.94
2017-10-17T13:48:52.967Z,101674.34
2017-10-17T13:50:55.415Z,101670.27
2017-10-17T13:52:57.901Z,101668.41
2017-10-17T13:55:00.369Z,101668.92
2017-10-17T13:57:02.808Z,101662.23
2017-10-17T13:59:05.258Z,101662.14
2017-10-17T14:01:07.723Z,101654.43
2017-10-17T14:03:10.210Z,101665.27
2017-10-17T14:05:12.644Z,101656.72
2017-10-17T14:07:15.192Z,101648.58
2017-10-17T14:09:17.637Z,101645.36
2017-10-17T14:11:20.308Z,101641.30
2017-10-17T14:13:22.806Z,101641.80
2017-10-17T14:15:25.294Z,101642.11
2017-10-17T14:17:27.744Z,101635.88
2017-10-17T14:19:30.223Z,101635.95
2017-10-17T14:21:32.689Z,101636.89
2017-10-17T14:23:35.160Z,101633.33
2017-10-17T14:25:37.621Z,101637.91
2017-10-17T14:27:40.085Z,101634.77
2017-10-17T14:29:42.528Z,101637.91
2017-10-17T14:31:45.041Z,101641.47
2017-10-17T14:33:47.508Z,101633.42
2017-10-17T14:35:49.944Z,101634.77
2017-10-17T14:37:52.406Z,101636.13
2017-10-17T14:39:55.041Z,101627.27
2017-10-17T14:41:57.541Z,101628.20
2017-10-17T14:44:00.805Z,101621.00
2017-10-17T14:46:03.244Z,101623.29
2017-10-17T14:48:05.694Z,101624.14
2017-10-17T14:50:08.201Z,101616.85
2017-10-17T14:52:10.717Z,101613.20
2017-10-17T14:54:13.168Z,101614.56
2017-10-17T14:56:15.723Z,101607.45
2017-10-17T14:58:18.178Z,101602.45
2017-10-17T15:00:20.636Z,101595.67
2017-10-17T15:02:23.116Z,101596.61
2017-10-17T15:04:25.578Z,101592.54
2017-10-17T15:06:28.026Z,101592.11
2017-10-17T15:08:30.521Z,101596.18
2017-10-17T15:10:32.957Z,101589.91
2017-10-17T15:12:35.544Z,101588.05
2017-10-17T15:14:38.012Z,101592.02
2017-10-17T15:16:40.449Z,101587.11
2017-10-17T15:18:42.905Z,101584.83
2017-10-17T15:20:45.402Z,101582.54
2017-10-17T15:22:47.850Z,101579.10
2017-10-17T15:24:50.292Z,101578.59
2017-10-17T15:26:52.769Z,101574.61
2017-10-17T15:28:55.254Z,101578.67
2017-10-17T15:30:57.706Z,101571.66
2017-10-17T15:33:00.278Z,101572.70
2017-10-17T15:35:02.764Z,101572.80
2017-10-17T15:37:05.358Z,101573.81
2017-10-17T15:39:07.882Z,101571.40
2017-10-17T15:41:10.349Z,101570.55
2017-10-17T15:43:12.797Z,101563.98
2017-10-17T15:45:15.266Z,101566.36
2017-10-17T15:47:17.708Z,101569.24
2017-10-17T15:49:20.151Z,101562.16
2017-10-17T15:51:22.634Z,101560.90
2017-10-17T15:53:25.187Z,101562.42
2017-10-17T15:55:27.636Z,101553.99
2017-10-17T15:57:30.106Z,101561.37
2017-10-17T15:59:32.647Z,101562.93
2017-10-17T16:01:35.116Z,101557.59
2017-10-17T16:03:37.582Z,101554.64
2017-10-17T16:05:40.048Z,101554.84
2017-10-17T16:07:42.579Z,101548.66
2017-10-17T16:09:45.242Z,101546.97
2017-10-17T16:11:47.947Z,101549.89
2017-10-17T16:13:50.453Z,101547.36
2017-10-17T16:15:52.924Z,101554.25
2017-10-17T16:17:55.368Z,101552.14
2017-10-17T16:19:57.915Z,101553.58
2017-10-17T16:22:00.405Z,101548.25
2017-10-17T16:24:02.845Z,101551.50
2017-10-17T16:26:05.296Z,101548.96
2017-10-17T16:28:07.780Z,101550.83
2017-10-17T16:30:10.270Z,101546.45
2017-10-17T16:32:12.712Z,101545.70
2017-10-17T16:34:15.181Z,101548.92
2017-10-17T16:36:17.623Z,101544.09
2017-10-17T16:38:20.074Z,101541.51
2017-10-17T16:40:22.553Z,101539.81
2017-10-17T16:42:25.023Z,101541.68
2017-10-17T16:44:27.477Z,101548.55
2017-10-17T16:46:30.038Z,101547.73
2017-10-17T16:48:32.497Z,101549.59
2017-10-17T16:50:34.953Z,101552.39
2017-10-17T16:52:37.423Z,101553.41
2017-10-17T16:54:39.868Z,101545.79
2017-10-17T16:56:42.324Z,101555.81
2017-10-17T16:58:44.834Z,101551.41
2017-10-17T17:00:47.308Z,101552.34
2017-10-17T17:02:49.784Z,101551.59
2017-10-17T17:04:52.250Z,101545.86
2017-10-17T17:06:54.684Z,101545.95
2017-10-17T17:08:57.188Z,101549.59
2017-10-17T17:10:59.681Z,101548.75
2017-10-17T17:13:02.137Z,101556.03
2017-10-17T17:15:04.701Z,101555.30
2017-10-17T17:17:07.176Z,101557.89
2017-10-17T17:19:09.617Z,101553.52
2017-10-17T17:21:12.077Z,101553.19
2017-10-17T17:23:14.545Z,101549.21
2017-10-17T17:25:17.051Z,101551.50
2017-10-17T17:27:19.531Z,101556.58
2017-10-17T17:29:22.008Z,101557.93
2017-10-17T17:31:24.449Z,101558.95
2017-10-17T17:33:27.104Z,101562.17
2017-10-17T17:35:29.568Z,101556.75
2017-10-17T17:37:32.082Z,101553.20
2017-10-17T17:39:34.549Z,101551.53
2017-10-17T17:41:37.031Z,101555.06
2017-10-17T17:43:39.493Z,101552.34
2017-10-17T17:45:41.932Z,101555.17
2017-10-17T17:47:44.406Z,101553.40
2017-10-17T17:49:46.857Z,101555.35
2017-10-17T17:51:49.297Z,101555.86
2017-10-17T17:53:51.756Z,101557.12
2017-10-17T17:55:54.229Z,101558.14
2017-10-17T17:57:56.678Z,101556.37
2017-10-17T17:59:59.164Z,101555.55
2017-10-17T18:02:01.616Z,101550.22
2017-10-17T18:04:04.058Z,101550.22
2017-10-17T18:06:06.531Z,101545.31
2017-10-17T18:08:08.984Z,101543.11
2017-10-17T18:10:11.435Z,101539.56
2017-10-17T18:12:13.901Z,101537.70
2017-10-17T18:14:16.368Z,101540.49
2017-10-17T18:16:18.969Z,101536.42
2017-10-17T18:18:21.454Z,101538.71
2017-10-17T18:20:23.930Z,101538.32
2017-10-17T18:22:26.416Z,101536.13
2017-10-17T18:24:28.899Z,101534.34
2017-10-17T18:26:31.415Z,101531.72
2017-10-17T18:28:33.943Z,101529.95
2017-10-17T18:30:36.551Z,101531.30
2017-10-17T18:32:39.085Z,101526.81
2017-10-17T18:34:41.527Z,101529.52
2017-10-17T18:36:44.005Z,101531.39
2017-10-17T18:38:46.541Z,101521.48
2017-10-17T18:40:49.074Z,101523.38
2017-10-17T18:42:51.557Z,101526.09
2017-10-17T18:44:54.015Z,101520.67
2017-10-17T18:46:56.481Z,101519.41
2017-10-17T18:48:58.965Z,101514.92
2017-10-17T18:51:01.450Z,101519.49
2017-10-17T18:53:03.903Z,101507.81
2017-10-17T18:55:06.396Z,101506.03
2017-10-17T18:57:08.838Z,101501.55
2017-10-17T18:59:11.289Z,101506.45
2017-10-17T19:01:13.812Z,101505.61
2017-10-17T19:03:16.282Z,101506.55
2017-10-17T19:05:18.723Z,101500.70
2017-10-17T19:07:21.282Z,101503.95
2017-10-17T19:09:23.782Z,101503.02
2017-10-17T19:11:26.253Z,101509.79
2017-10-17T19:13:28.740Z,101509.38
2017-10-17T19:15:31.188Z,101507.59
2017-10-17T19:17:33.913Z,101502.27
2017-10-17T19:19:36.400Z,101501.33
2017-10-17T19:21:38.853Z,101496.00
2017-10-17T19:23:41.370Z,101495.49
2017-10-17T19:25:43.828Z,101497.27
2017-10-17T19:27:46.310Z,101492.88
2017-10-17T19:29:48.756Z,101491.52
2017-10-17T19:31:51.233Z,101498.28
2017-10-17T19:33:53.685Z,101491.18
2017-10-17T19:35:56.138Z,101495.66
2017-10-17T19:37:58.706Z,101496.09
2017-10-17T19:40:01.173Z,101490.25
2017-10-17T19:42:03.629Z,101495.24
2017-10-17T19:44:06.103Z,101486.61
2017-10-17T19:46:08.545Z,101485.38
2017-10-17T19:48:11.002Z,101485.77
2017-10-17T19:50:13.526Z,101476.41
2017-10-17T19:52:16.052Z,101485.46
2017-10-17T19:54:18.572Z,101477.76
2017-10-17T19:56:21.048Z,101479.11
2017-10-17T19:58:23.492Z,101474.12
2017-10-17T20:00:25.937Z,101470.05
2017-10-17T20:02:28.393Z,101469.63
2017-10-17T20:04:30.884Z,101469.72
2017-10-17T20:06:33.450Z,101467.02
2017-10-17T20:08:35.927Z,101467.43
2017-10-17T20:10:38.367Z,101463.03
2017-10-17T20:12:40.812Z,101466.67
2017-10-17T20:14:43.283Z,101466.25
2017-10-17T20:16:45.754Z,101461.26
2017-10-17T20:18:48.488Z,101459.06
2017-10-17T20:20:50.961Z,101458.64
2017-10-17T20:22:53.413Z,101455.54
2017-10-17T20:24:55.880Z,101451.98
2017-10-17T20:26:58.348Z,101451.14
2017-10-17T20:29:00.785Z,101451.14
2017-10-17T20:31:03.247Z,101441.75
2017-10-17T20:33:05.724Z,101448.02
2017-10-17T20:35:08.167Z,101445.30
2017-10-17T20:37:10.657Z,101440.82
2017-10-17T20:39:13.127Z,101445.30
2017-10-17T20:41:15.594Z,101439.89
2017-10-17T20:43:18.119Z,101439.05
2017-10-17T20:45:20.584Z,101436.84
2017-10-17T20:47:23.041Z,101428.21
2017-10-17T20:49:25.481Z,101434.98
2017-10-17T20:51:27.958Z,101432.36
2017-10-17T20:53:30.419Z,101436.42
2017-10-17T20:55:32.869Z,101431.13
2017-10-17T20:57:35.414Z,101428.80
2017-10-17T20:59:38.034Z,101433.83
2017-10-17T21:01:40.488Z,101437.47
2017-10-17T21:03:43.043Z,101432.05
2017-10-17T21:05:45.573Z,101433.92
2017-10-17T21:07:48.031Z,101433.58
2017-10-17T21:09:50.519Z,101429.10
2017-10-17T21:11:52.972Z,101428.59
2017-10-17T21:13:55.411Z,101426.30
2017-10-17T21:15:57.868Z,101429.52
2017-10-17T21:18:00.400Z,101426.39
2017-10-17T21:20:03.162Z,101423.27
2017-10-17T21:22:05.945Z,101422.41
2017-10-17T21:24:08.389Z,101424.31
2017-10-17T21:26:10.901Z,101419.83
2017-10-17T21:28:13.475Z,101417.00
2017-10-17T21:30:15.917Z,101417.94
2017-10-17T21:32:18.378Z,101418.89
2017-10-17T21:34:20.836Z,101409.93
2017-10-17T21:36:23.280Z,101416.19
2017-10-17T21:38:25.833Z,101406.37
2017-10-17T21:40:28.296Z,101409.00
2017-10-17T21:42:30.776Z,101405.02
2017-10-17T21:44:33.247Z,101398.67
2017-10-17T21:46:35.724Z,101400.54
2017-10-17T21:48:38.164Z,101398.34
2017-10-17T21:50:40.606Z,101391.66
2017-10-17T21:52:43.075Z,101395.72
2017-10-17T21:54:45.581Z,101398.94
2017-10-17T21:56:48.019Z,101391.78
2017-10-17T21:58:50.476Z,101395.30
2017-10-17T22:01:01.938Z,101394.48
2017-10-17T22:03:05.523Z,101381.97
2017-10-17T22:05:07.983Z,101385.52
2017-10-17T22:07:10.429Z,101386.45
2017-10-17T22:09:12.882Z,101383.32
2017-10-17T22:11:15.391Z,101381.97
2017-10-17T22:13:17.825Z,101377.48
2017-10-17T22:15:20.256Z,101373.59
2017-10-17T22:17:22.729Z,101374.86
2017-10-17T22:19:25.172Z,101373.59
2017-10-17T22:21:27.951Z,101371.43
2017-10-17T22:23:30.422Z,101368.72
2017-10-17T22:25:32.848Z,101372.87
2017-10-17T22:27:35.304Z,101369.23
2017-10-17T22:29:37.767Z,101363.81
2017-10-17T22:31:40.202Z,101362.55
2017-10-17T22:33:42.632Z,101368.90
2017-10-17T22:35:45.136Z,101365.26
2017-10-17T22:37:47.595Z,101370.25
2017-10-17T22:39:50.058Z,101370.25
2017-10-17T22:41:52.512Z,101364.84
2017-10-17T22:43:54.973Z,101362.55
2017-10-17T22:45:57.434Z,101346.39
2017-10-17T22:47:59.889Z,101347.33
2017-10-17T22:50:02.472Z,101346.48
2017-10-17T22:52:04.915Z,101345.04
2017-10-17T22:54:07.390Z,101352.32
2017-10-17T22:56:09.823Z,101344.70
2017-10-17T22:58:12.294Z,101339.41
2017-10-17T23:00:14.862Z,101338.91
2017-10-17T23:02:17.300Z,101334.00
2017-10-17T23:04:19.742Z,101329.09
2017-10-17T23:06:22.203Z,101326.05
2017-10-17T23:08:24.636Z,101308.55
2017-10-17T23:10:27.070Z,101316.16
2017-10-17T23:12:29.577Z,101311.16
2017-10-17T23:14:32.020Z,101310.44
2017-10-17T23:16:34.456Z,101307.19
2017-10-17T23:18:48.731Z,101308.55
2017-10-17T23:20:51.253Z,101308.23
2017-10-17T23:22:53.786Z,101304.18
2017-10-17T23:24:56.340Z,101296.56
2017-10-17T23:26:58.856Z,101300.20
2017-10-17T23:29:01.295Z,101299.27
2017-10-17T23:31:03.788Z,101291.75
2017-10-17T23:33:06.224Z,101293.53
2017-10-17T23:35:08.670Z,101292.17
2017-10-17T23:37:11.142Z,101287.69
2017-10-17T23:39:13.593Z,101284.56
2017-10-17T23:41:16.024Z,101289.89
2017-10-17T23:43:18.488Z,101284.56
2017-10-17T23:45:20.950Z,101282.36
2017-10-17T23:47:23.385Z,101278.30
2017-10-17T23:49:25.916Z,101277.50
2017-10-17T23:51:28.371Z,101276.56
2017-10-17T23:53:30.860Z,101278.84
2017-10-17T23:55:33.325Z,101271.23
2017-10-17T23:57:35.781Z,101273.52
2017-10-17T23:59:38.230Z,101269.97
